Accueil
METAR-TAF:

METAR-TAF

Aéroports :

Majuro, Îles Marshall

Aéroport international des îles Marshall

latitude: 07-04N, longitude: 171-17E, altitude: 2 m

Observation

Le bulletin a été fait il y a 1 heure et 54 minutes, à 07:50 UTC
Vent 9 kt de nord-est
Température 29°C
Humidité 79%
Pression 1005 hPa
Visibilité: 24.1 km
Quelques nuages à une hauteur de 1500 ft
Nuages épars à une hauteur de 5000 ft
Nuages fragmentés à une hauteur de 30000 ft

METAR: PKMJ 240750Z 05009KT 15SM FEW015 SCT050 BKN300 29/25 A2967 RMK LAST

Heure: 21:44 (09:44 UTC)

Prévision

Le bulletin a été fait il y a 4 heures et 24 minutes, à 05:20 UTC
Prévision valable du 24 à 06 UTC au 25 à 06 UTC
Vent 14 kt de est
Visibilité: 10 km
Quelques nuages à une hauteur de 1600 ft
Nuages épars à une hauteur de 4000 ft
Nuages fragmentés à une hauteur de 12000 ft
averses à proximité

TAF: PKMJ 240520Z 2406/2506 09014KT P6SM VCSH FEW016 SCT040 BKN120

Observations et prévisions météorologiques de plus de 4000 aéroports (messages METAR et TAF).

Les stations disponibles sont représentées par des disques jaunes et rouges sur la carte.

Passer la souris dessus pour voir le nom de la station.

Cliquer dessus pour voir les observations et prévisions météorologiques.

Pour changer de carte: cliquez sur les boutons verts avec une croix noire pour zoomer, sur le bouton vert avec un tiret pour effectuer un zoom arrière, ou sur les flèches vertes pour les cartes adjacentes.


METAR-TAF: